Overseas Luzon — V7NE5 — position and weather

sailwx.info

Track history (hours):
 
Tides and Currents Weather Stations Pressure Air Temp Water Temp Dewpoint Dewpoint Depression Visibility Wind Speed Wind Dir Waves Ship Positions

Overseas Luzon

Last reported at 2017-Feb-20 04:33 UTC. Time now 2017-Feb-21 07:57 UTC.
Position N 32°18' W 117°34'.

Length 228 m; draft 8.1 m.

Type: Tanker. MMSI: 538002946.

Date/timePositionNaut miles runAvg speedWind from/ knotsBaromVisibWave heightAir tempDewpointWater temp
2017-Feb-20 04:33N 32°18' W 117°34'1413.9
2017-Feb-20 03:33N 32°32' W 117°39'1615.8
2017-Feb-20 02:33N 32°46' W 117°46'1616.0
2017-Feb-20 01:33N 33°01' W 117°55'1312.5
2017-Feb-20 00:33N 33°12' W 118°02'1211.8
2017-Feb-19 23:33N 33°22' W 118°08'1211.9
2017-Feb-19 22:33N 33°34' W 118°12'11 0.5
2017-Feb-18 23:21N 33°44' W 118°10'0 0.0
2017-Feb-18 22:21N 33°44' W 118°10'0 0.0
2017-Feb-18 21:08N 33°44' W 118°10'0 0.0
2017-Feb-18 20:30N 33°44' W 118°10'0 0.0
2017-Feb-18 19:27N 33°44' W 118°10'0 0.0
2017-Feb-18 18:33N 33°44' W 118°10'0 0.0
2017-Feb-18 17:33N 33°44' W 118°10'0 0.1
2017-Feb-18 16:30N 33°44' W 118°10'0 0.0
2017-Feb-18 15:33N 33°44' W 118°10'0 0.0
2017-Feb-18 14:33N 33°44' W 118°10'0 0.1
2017-Feb-18 13:31N 33°44' W 118°10'0 0.0
2017-Feb-18 12:33N 33°44' W 118°10'0 0.0
2017-Feb-18 11:11N 33°44' W 118°10'0 0.0
2017-Feb-18 09:26N 33°44' W 118°10'0 0.0
2017-Feb-18 08:04N 33°44' W 118°10'0 0.0
2017-Feb-18 07:33N 33°44' W 118°10'0 0.0
2017-Feb-18 06:33N 33°44' W 118°10'0 0.0
2017-Feb-18 05:34N 33°44' W 118°10'0 0.1
2017-Feb-18 04:33N 33°44' W 118°10'0 0.0
2017-Feb-18 03:33N 33°44' W 118°10'0 0.1
2017-Feb-18 01:33N 33°44' W 118°10'0 0.1
2017-Feb-18 00:25N 33°44' W 118°10'0 0.0
2017-Feb-17 23:29N 33°44' W 118°10'0 0.0
2017-Feb-17 22:33N 33°44' W 118°10'6 3.1
2017-Feb-17 20:33N 33°38' W 118°10'9 8.7
2017-Feb-17 19:31N 33°36' W 118°21'55 7.6
2017-Feb-17 12:13N 33°40' W 119°27'1 1.8
2017-Feb-17 11:30N 33°39' W 119°28'4 4.7
2017-Feb-17 10:33N 33°38' W 119°33'10 8.2
2017-Feb-17 09:21N 33°38' W 119°45'4 5.5
2017-Feb-17 08:33N 33°37' W 119°50'3 2.7
2017-Feb-17 07:33N 33°37' W 119°53'4 2.8
2017-Feb-17 06:16N 33°37' W 119°58'150 8.4
2017-Feb-16 12:19N 35°32' W 121°55'4 4.7
2017-Feb-16 11:33N 35°35' W 121°57'2 1.4
2017-Feb-16 10:22N 35°33' W 121°57'0 0.5
2017-Feb-16 09:33N 35°33' W 121°57'1 0.5
2017-Feb-16 08:33N 35°33' W 121°58'1 0.7
2017-Feb-16 07:33N 35°32' W 121°58'1 0.6
2017-Feb-16 06:34N 35°32' W 121°59'1 0.5
2017-Feb-16 05:33N 35°32' W 121°60'0 0.4
2017-Feb-16 04:33N 35°32' W 122°00'0 0.5
2017-Feb-16 03:33N 35°32' W 122°01'1 0.5
2017-Feb-16 02:33N 35°32' W 122°02'0 0.3
2017-Feb-16 01:33N 35°32' W 122°02'0 0.3
2017-Feb-16 00:33N 35°32' W 122°02'0 0.2
2017-Feb-15 23:33N 35°31' W 122°02'0 0.2
2017-Feb-15 22:33N 35°32' W 122°02'0 0.4
2017-Feb-15 21:34N 35°32' W 122°01'1 0.9
2017-Feb-15 20:33N 35°33' W 122°01'5 5.3
2017-Feb-15 19:33N 35°38' W 122°01'1413.6
2017-Feb-15 18:33N 35°50' W 122°09'1414.0
2017-Feb-15 17:33N 36°02' W 122°19'1413.8
2017-Feb-15 16:33N 36°14' W 122°28'1413.7
2017-Feb-15 15:33N 36°26' W 122°35'1414.0
2017-Feb-15 14:33N 36°39' W 122°43'1414.0
2017-Feb-15 13:33N 36°51' W 122°50'1413.7
2017-Feb-15 12:33N 37°04' W 122°58'1313.5
2017-Feb-15 11:33N 37°16' W 123°03'1413.6
2017-Feb-15 10:33N 37°29' W 123°10'1413.6
2017-Feb-15 09:33N 37°38' W 122°58'1413.7
2017-Feb-15 08:33N 37°44' W 122°42'1212.5
2017-Feb-15 07:34N 37°50' W 122°28'7 6.6
2017-Feb-15 06:33N 37°56' W 122°25'0 0.0
2017-Feb-15 05:30N 37°56' W 122°25'0 0.0
2017-Feb-14 19:06N 37°56' W 122°25'0 0.0
2017-Feb-14 13:18N 37°56' W 122°25'0 0.0
2017-Feb-14 12:30N 37°56' W 122°25'0 0.0
2017-Feb-14 10:06N 37°56' W 122°25'0 0.0
2017-Feb-14 07:18N 37°56' W 122°25'0 0.0
2017-Feb-14 06:06N 37°56' W 122°25'0 0.0
2017-Feb-14 04:18N 37°56' W 122°25'0 0.0
2017-Feb-14 03:30N 37°56' W 122°25'0 0.0
2017-Feb-13 22:24N 37°56' W 122°25'0 0.0
2017-Feb-13 19:24N 37°56' W 122°25'0 0.0
2017-Feb-13 10:33N 37°56' W 122°25'1 0.9
2017-Feb-13 09:33N 37°55' W 122°25'8 8.4
2017-Feb-13 08:34N 37°47' W 122°22'3 2.6
2017-Feb-13 07:33N 37°44' W 122°21'0 0.0
2017-Feb-13 06:33N 37°44' W 122°21'0 0.0
2017-Feb-13 05:33N 37°44' W 122°21'0 0.0
2017-Feb-13 04:33N 37°44' W 122°21'0 0.2
2017-Feb-13 03:33N 37°45' W 122°21'0 0.1
2017-Feb-13 02:33N 37°45' W 122°21'0 0.0
2017-Feb-13 01:33N 37°45' W 122°21'0 0.0
2017-Feb-13 00:33N 37°45' W 122°21'0 0.0
2017-Feb-12 23:33N 37°45' W 122°21'0 0.1
2017-Feb-12 22:33N 37°45' W 122°21'0 0.2
2017-Feb-12 21:33N 37°44' W 122°21'0 0.1
2017-Feb-12 20:33N 37°44' W 122°21'0 0.1
2017-Feb-12 19:33N 37°44' W 122°21'0 0.0
2017-Feb-12 18:33N 37°44' W 122°21'0 0.0
2017-Feb-12 17:33N 37°44' W 122°21'0 0.0
2017-Feb-12 16:34N 37°44' W 122°21'0 0.2
2017-Feb-12 15:33N 37°44' W 122°21'0 0.1
2017-Feb-12 14:33N 37°45' W 122°21'0 0.0
2017-Feb-12 13:33N 37°45' W 122°21'0 0.1
2017-Feb-12 12:33N 37°45' W 122°21'0 0.1
2017-Feb-12 11:33N 37°45' W 122°21'0 0.1
2017-Feb-12 10:33N 37°44' W 122°21'0 0.2
2017-Feb-12 09:33N 37°44' W 122°21'0 0.0
2017-Feb-12 08:33N 37°44' W 122°21'0 0.0
2017-Feb-12 07:33N 37°44' W 122°21'0 0.0
2017-Feb-12 06:33N 37°44' W 122°21'0 0.0
2017-Feb-12 05:33N 37°44' W 122°21'0 0.1
2017-Feb-12 04:33N 37°44' W 122°21'0 0.1
2017-Feb-12 03:33N 37°44' W 122°21'0 0.2
2017-Feb-12 02:33N 37°45' W 122°21'0 0.0
2017-Feb-12 01:33N 37°45' W 122°21'0 0.1
2017-Feb-12 00:33N 37°45' W 122°21'0 0.0
2017-Feb-11 23:33N 37°45' W 122°21'0 0.0
2017-Feb-11 22:33N 37°45' W 122°21'0 0.1
2017-Feb-11 21:33N 37°45' W 122°21'0 0.2
2017-Feb-11 20:33N 37°44' W 122°21'0 0.1
2017-Feb-11 19:33N 37°44' W 122°21'0 0.0
2017-Feb-11 18:34N 37°44' W 122°21'0 0.0
2017-Feb-11 17:33N 37°44' W 122°21'0 0.0
2017-Feb-11 16:34N 37°44' W 122°21'0 0.0
2017-Feb-11 15:33N 37°44' W 122°21'0 0.2
2017-Feb-11 14:33N 37°44' W 122°21'0 0.2
2017-Feb-11 13:33N 37°45' W 122°21'0 0.0
2017-Feb-11 12:33N 37°45' W 122°21'0 0.0
2017-Feb-11 11:33N 37°45' W 122°21'0 0.1
2017-Feb-11 10:33N 37°45' W 122°21'0 0.2
2017-Feb-11 09:33N 37°44' W 122°21'0 0.2
2017-Feb-11 08:33N 37°44' W 122°21'0 0.0
2017-Feb-11 07:33N 37°44' W 122°21'0 0.0
2017-Feb-11 06:34N 37°44' W 122°21'0 0.0
2017-Feb-11 05:33N 37°44' W 122°21'0 0.0
2017-Feb-11 04:33N 37°44' W 122°21'0 0.0
2017-Feb-11 03:33N 37°44' W 122°21'0 0.2
2017-Feb-11 02:33N 37°44' W 122°21'0 0.1
2017-Feb-11 01:33N 37°45' W 122°21'0 0.0
2017-Feb-11 00:33N 37°45' W 122°21'0 0.0
2017-Feb-10 23:33N 37°45' W 122°21'0 0.0
2017-Feb-10 22:33N 37°45' W 122°21'0 0.0
2017-Feb-10 21:33N 37°45' W 122°21'0 0.0
2017-Feb-10 20:33N 37°45' W 122°21'0 0.3
2017-Feb-10 19:33N 37°44' W 122°21'0 0.1
2017-Feb-10 18:33N 37°44' W 122°21'0 0.0
2017-Feb-10 17:33N 37°44' W 122°21'0 0.0
2017-Feb-10 16:33N 37°44' W 122°21'0 0.0
2017-Feb-10 15:34N 37°44' W 122°21'0 0.0
2017-Feb-10 14:33N 37°44' W 122°21'0 0.2
2017-Feb-10 13:33N 37°44' W 122°21'0 0.1
2017-Feb-10 12:33N 37°45' W 122°21'0 0.0
2017-Feb-10 11:33N 37°45' W 122°21'0 0.0
2017-Feb-10 10:33N 37°45' W 122°21'0 0.0
2017-Feb-10 09:33N 37°45' W 122°21'0 0.2
2017-Feb-10 08:34N 37°44' W 122°21'0 0.1
2017-Feb-10 07:33N 37°44' W 122°21'0 0.0
2017-Feb-10 06:33N 37°44' W 122°21'0 0.0
2017-Feb-10 05:33N 37°44' W 122°21'0 0.0
2017-Feb-10 04:33N 37°44' W 122°21'  
Track history (hours):
 
Tides and Currents Weather Stations Pressure Air Temp Water Temp Dewpoint Dewpoint Depression Visibility Wind Speed Wind Dir Waves Ship Positions

Overseas Luzon

Last reported at 2017-Feb-20 04:33 UTC. Time now 2017-Feb-21 07:57 UTC.
Position N 32°18' W 117°34'.

Length 228 m; draft 8.1 m.

Type: Tanker. MMSI: 538002946.

Date/timePositionNaut miles runAvg speedWind from/ knotsBaromVisibWave heightAir tempDewpointWater temp
2017-Feb-20 04:33N 32°18' W 117°34'1413.9
2017-Feb-20 03:33N 32°32' W 117°39'1615.8
2017-Feb-20 02:33N 32°46' W 117°46'1616.0
2017-Feb-20 01:33N 33°01' W 117°55'1312.5
2017-Feb-20 00:33N 33°12' W 118°02'1211.8
2017-Feb-19 23:33N 33°22' W 118°08'1211.9
2017-Feb-19 22:33N 33°34' W 118°12'11 0.5
2017-Feb-18 23:21N 33°44' W 118°10'0 0.0
2017-Feb-18 22:21N 33°44' W 118°10'0 0.0
2017-Feb-18 21:08N 33°44' W 118°10'0 0.0
2017-Feb-18 20:30N 33°44' W 118°10'0 0.0
2017-Feb-18 19:27N 33°44' W 118°10'0 0.0
2017-Feb-18 18:33N 33°44' W 118°10'0 0.0
2017-Feb-18 17:33N 33°44' W 118°10'0 0.1
2017-Feb-18 16:30N 33°44' W 118°10'0 0.0
2017-Feb-18 15:33N 33°44' W 118°10'0 0.0
2017-Feb-18 14:33N 33°44' W 118°10'0 0.1
2017-Feb-18 13:31N 33°44' W 118°10'0 0.0
2017-Feb-18 12:33N 33°44' W 118°10'0 0.0
2017-Feb-18 11:11N 33°44' W 118°10'0 0.0
2017-Feb-18 09:26N 33°44' W 118°10'0 0.0
2017-Feb-18 08:04N 33°44' W 118°10'0 0.0
2017-Feb-18 07:33N 33°44' W 118°10'0 0.0
2017-Feb-18 06:33N 33°44' W 118°10'0 0.0
2017-Feb-18 05:34N 33°44' W 118°10'0 0.1
2017-Feb-18 04:33N 33°44' W 118°10'0 0.0
2017-Feb-18 03:33N 33°44' W 118°10'0 0.1
2017-Feb-18 01:33N 33°44' W 118°10'0 0.1
2017-Feb-18 00:25N 33°44' W 118°10'0 0.0
2017-Feb-17 23:29N 33°44' W 118°10'0 0.0
2017-Feb-17 22:33N 33°44' W 118°10'6 3.1
2017-Feb-17 20:33N 33°38' W 118°10'9 8.7
2017-Feb-17 19:31N 33°36' W 118°21'55 7.6
2017-Feb-17 12:13N 33°40' W 119°27'1 1.8
2017-Feb-17 11:30N 33°39' W 119°28'4 4.7
2017-Feb-17 10:33N 33°38' W 119°33'10 8.2
2017-Feb-17 09:21N 33°38' W 119°45'4 5.5
2017-Feb-17 08:33N 33°37' W 119°50'3 2.7
2017-Feb-17 07:33N 33°37' W 119°53'4 2.8
2017-Feb-17 06:16N 33°37' W 119°58'150 8.4
2017-Feb-16 12:19N 35°32' W 121°55'4 4.7
2017-Feb-16 11:33N 35°35' W 121°57'2 1.4
2017-Feb-16 10:22N 35°33' W 121°57'0 0.5
2017-Feb-16 09:33N 35°33' W 121°57'1 0.5
2017-Feb-16 08:33N 35°33' W 121°58'1 0.7
2017-Feb-16 07:33N 35°32' W 121°58'1 0.6
2017-Feb-16 06:34N 35°32' W 121°59'1 0.5
2017-Feb-16 05:33N 35°32' W 121°60'0 0.4
2017-Feb-16 04:33N 35°32' W 122°00'0 0.5
2017-Feb-16 03:33N 35°32' W 122°01'1 0.5
2017-Feb-16 02:33N 35°32' W 122°02'0 0.3
2017-Feb-16 01:33N 35°32' W 122°02'0 0.3
2017-Feb-16 00:33N 35°32' W 122°02'0 0.2
2017-Feb-15 23:33N 35°31' W 122°02'0 0.2
2017-Feb-15 22:33N 35°32' W 122°02'0 0.4
2017-Feb-15 21:34N 35°32' W 122°01'1 0.9
2017-Feb-15 20:33N 35°33' W 122°01'5 5.3
2017-Feb-15 19:33N 35°38' W 122°01'1413.6
2017-Feb-15 18:33N 35°50' W 122°09'1414.0
2017-Feb-15 17:33N 36°02' W 122°19'1413.8
2017-Feb-15 16:33N 36°14' W 122°28'1413.7
2017-Feb-15 15:33N 36°26' W 122°35'1414.0
2017-Feb-15 14:33N 36°39' W 122°43'1414.0
2017-Feb-15 13:33N 36°51' W 122°50'1413.7
2017-Feb-15 12:33N 37°04' W 122°58'1313.5
2017-Feb-15 11:33N 37°16' W 123°03'1413.6
2017-Feb-15 10:33N 37°29' W 123°10'1413.6
2017-Feb-15 09:33N 37°38' W 122°58'1413.7
2017-Feb-15 08:33N 37°44' W 122°42'1212.5
2017-Feb-15 07:34N 37°50' W 122°28'7 6.6
2017-Feb-15 06:33N 37°56' W 122°25'0 0.0
2017-Feb-15 05:30N 37°56' W 122°25'0 0.0
2017-Feb-14 19:06N 37°56' W 122°25'0 0.0
2017-Feb-14 13:18N 37°56' W 122°25'0 0.0
2017-Feb-14 12:30N 37°56' W 122°25'0 0.0
2017-Feb-14 10:06N 37°56' W 122°25'0 0.0
2017-Feb-14 07:18N 37°56' W 122°25'0 0.0
2017-Feb-14 06:06N 37°56' W 122°25'0 0.0
2017-Feb-14 04:18N 37°56' W 122°25'0 0.0
2017-Feb-14 03:30N 37°56' W 122°25'0 0.0
2017-Feb-13 22:24N 37°56' W 122°25'0 0.0
2017-Feb-13 19:24N 37°56' W 122°25'0 0.0
2017-Feb-13 10:33N 37°56' W 122°25'1 0.9
2017-Feb-13 09:33N 37°55' W 122°25'8 8.4
2017-Feb-13 08:34N 37°47' W 122°22'3 2.6
2017-Feb-13 07:33N 37°44' W 122°21'0 0.0
2017-Feb-13 06:33N 37°44' W 122°21'0 0.0
2017-Feb-13 05:33N 37°44' W 122°21'0 0.0
2017-Feb-13 04:33N 37°44' W 122°21'0 0.2
2017-Feb-13 03:33N 37°45' W 122°21'0 0.1
2017-Feb-13 02:33N 37°45' W 122°21'0 0.0
2017-Feb-13 01:33N 37°45' W 122°21'0 0.0
2017-Feb-13 00:33N 37°45' W 122°21'0 0.0
2017-Feb-12 23:33N 37°45' W 122°21'0 0.1
2017-Feb-12 22:33N 37°45' W 122°21'0 0.2
2017-Feb-12 21:33N 37°44' W 122°21'0 0.1
2017-Feb-12 20:33N 37°44' W 122°21'0 0.1
2017-Feb-12 19:33N 37°44' W 122°21'0 0.0
2017-Feb-12 18:33N 37°44' W 122°21'0 0.0
2017-Feb-12 17:33N 37°44' W 122°21'0 0.0
2017-Feb-12 16:34N 37°44' W 122°21'0 0.2
2017-Feb-12 15:33N 37°44' W 122°21'0 0.1
2017-Feb-12 14:33N 37°45' W 122°21'0 0.0
2017-Feb-12 13:33N 37°45' W 122°21'0 0.1
2017-Feb-12 12:33N 37°45' W 122°21'0 0.1
2017-Feb-12 11:33N 37°45' W 122°21'0 0.1
2017-Feb-12 10:33N 37°44' W 122°21'0 0.2
2017-Feb-12 09:33N 37°44' W 122°21'0 0.0
2017-Feb-12 08:33N 37°44' W 122°21'0 0.0
2017-Feb-12 07:33N 37°44' W 122°21'0 0.0
2017-Feb-12 06:33N 37°44' W 122°21'0 0.0
2017-Feb-12 05:33N 37°44' W 122°21'0 0.1
2017-Feb-12 04:33N 37°44' W 122°21'0 0.1
2017-Feb-12 03:33N 37°44' W 122°21'0 0.2
2017-Feb-12 02:33N 37°45' W 122°21'0 0.0
2017-Feb-12 01:33N 37°45' W 122°21'0 0.1
2017-Feb-12 00:33N 37°45' W 122°21'0 0.0
2017-Feb-11 23:33N 37°45' W 122°21'0 0.0
2017-Feb-11 22:33N 37°45' W 122°21'0 0.1
2017-Feb-11 21:33N 37°45' W 122°21'0 0.2
2017-Feb-11 20:33N 37°44' W 122°21'0 0.1
2017-Feb-11 19:33N 37°44' W 122°21'0 0.0
2017-Feb-11 18:34N 37°44' W 122°21'0 0.0
2017-Feb-11 17:33N 37°44' W 122°21'0 0.0
2017-Feb-11 16:34N 37°44' W 122°21'0 0.0
2017-Feb-11 15:33N 37°44' W 122°21'0 0.2
2017-Feb-11 14:33N 37°44' W 122°21'0 0.2
2017-Feb-11 13:33N 37°45' W 122°21'0 0.0
2017-Feb-11 12:33N 37°45' W 122°21'0 0.0
2017-Feb-11 11:33N 37°45' W 122°21'0 0.1
2017-Feb-11 10:33N 37°45' W 122°21'0 0.2
2017-Feb-11 09:33N 37°44' W 122°21'0 0.2
2017-Feb-11 08:33N 37°44' W 122°21'0 0.0
2017-Feb-11 07:33N 37°44' W 122°21'0 0.0
2017-Feb-11 06:34N 37°44' W 122°21'0 0.0
2017-Feb-11 05:33N 37°44' W 122°21'0 0.0
2017-Feb-11 04:33N 37°44' W 122°21'0 0.0
2017-Feb-11 03:33N 37°44' W 122°21'0 0.2
2017-Feb-11 02:33N 37°44' W 122°21'0 0.1
2017-Feb-11 01:33N 37°45' W 122°21'0 0.0
2017-Feb-11 00:33N 37°45' W 122°21'0 0.0
2017-Feb-10 23:33N 37°45' W 122°21'0 0.0
2017-Feb-10 22:33N 37°45' W 122°21'0 0.0
2017-Feb-10 21:33N 37°45' W 122°21'0 0.0
2017-Feb-10 20:33N 37°45' W 122°21'0 0.3
2017-Feb-10 19:33N 37°44' W 122°21'0 0.1
2017-Feb-10 18:33N 37°44' W 122°21'0 0.0
2017-Feb-10 17:33N 37°44' W 122°21'0 0.0
2017-Feb-10 16:33N 37°44' W 122°21'0 0.0
2017-Feb-10 15:34N 37°44' W 122°21'0 0.0
2017-Feb-10 14:33N 37°44' W 122°21'0 0.2
2017-Feb-10 13:33N 37°44' W 122°21'0 0.1
2017-Feb-10 12:33N 37°45' W 122°21'0 0.0
2017-Feb-10 11:33N 37°45' W 122°21'0 0.0
2017-Feb-10 10:33N 37°45' W 122°21'0 0.0
2017-Feb-10 09:33N 37°45' W 122°21'0 0.2
2017-Feb-10 08:34N 37°44' W 122°21'0 0.1
2017-Feb-10 07:33N 37°44' W 122°21'0 0.0
2017-Feb-10 06:33N 37°44' W 122°21'0 0.0
2017-Feb-10 05:33N 37°44' W 122°21'0 0.0
2017-Feb-10 04:33N 37°44' W 122°21'  

Dump ship's entire track history